createdAt,value
2023-02-07T00:00:21.668Z,1.54
2023-02-07T00:02:49.685Z,1.42
2023-02-07T00:05:16.914Z,1.22
2023-02-07T00:07:43.656Z,1.13
2023-02-07T00:10:10.706Z,1.19
2023-02-07T00:12:37.403Z,1.28
2023-02-07T00:15:04.706Z,1.05
2023-02-07T00:17:32.237Z,1.02
2023-02-07T00:19:58.924Z,0.93
2023-02-07T00:22:25.617Z,0.68
2023-02-07T00:24:52.261Z,0.65
2023-02-07T00:27:19.104Z,0.57
2023-02-07T00:29:45.761Z,0.50
2023-02-07T00:32:12.340Z,0.42
2023-02-07T00:34:38.963Z,0.43
2023-02-07T00:37:06.229Z,0.35
2023-02-07T00:39:32.949Z,0.36
2023-02-07T00:41:59.827Z,0.43
2023-02-07T00:44:27.408Z,0.35
2023-02-07T00:46:54.101Z,0.49
2023-02-07T00:49:21.057Z,0.27
2023-02-07T00:51:47.731Z,0.51
2023-02-07T00:54:14.266Z,0.66
2023-02-07T00:56:41.136Z,0.72
2023-02-07T00:59:07.879Z,0.84
2023-02-07T01:01:34.675Z,0.92
2023-02-07T01:04:01.738Z,0.79
2023-02-07T01:06:29.641Z,0.55
2023-02-07T01:08:58.207Z,0.59
2023-02-07T01:11:25.091Z,0.50
2023-02-07T01:13:52.098Z,0.37
2023-02-07T01:16:23.376Z,0.35
2023-02-07T01:18:50.390Z,0.46
2023-02-07T01:21:23.532Z,0.36
2023-02-07T01:23:50.445Z,0.25
2023-02-07T01:26:17.601Z,0.30
2023-02-07T01:28:44.178Z,0.22
2023-02-07T01:31:13.472Z,0.32
2023-02-07T01:33:40.300Z,0.14
2023-02-07T01:36:13.317Z,0.38
2023-02-07T01:38:40.213Z,0.35
2023-02-07T01:41:07.272Z,0.48
2023-02-07T01:43:34.670Z,0.48
2023-02-07T01:46:01.540Z,0.49
2023-02-07T01:48:35.585Z,0.53
2023-02-07T01:51:06.532Z,0.38
2023-02-07T01:53:36.723Z,0.27
2023-02-07T01:56:09.181Z,0.21
2023-02-07T01:58:38.229Z,0.33
2023-02-07T02:01:09.999Z,0.24
2023-02-07T02:03:43.005Z,0.13
2023-02-07T02:06:11.568Z,0.05
2023-02-07T02:08:38.138Z,-0.02
2023-02-07T02:11:17.131Z,0.04
2023-02-07T02:14:04.459Z,0.03
2023-02-07T02:16:49.644Z,0.10
2023-02-07T02:19:23.356Z,-0.06
2023-02-07T02:22:13.739Z,0.03
2023-02-07T02:24:40.251Z,0.02
2023-02-07T02:27:36.077Z,0.13
2023-02-07T02:30:20.151Z,0.09
2023-02-07T02:32:49.519Z,0.19
2023-02-07T02:35:45.356Z,0.34
2023-02-07T02:38:26.321Z,0.31
2023-02-07T02:41:01.769Z,0.43
2023-02-07T02:43:40.919Z,0.27
2023-02-07T02:46:15.218Z,0.03
2023-02-07T02:48:44.252Z,0.14
2023-02-07T02:51:11.025Z,0.17
2023-02-07T02:53:37.699Z,0.14
2023-02-07T02:56:19.727Z,-0.13
2023-02-07T02:59:13.636Z,-0.06
2023-02-07T03:01:49.411Z,-0.07
2023-02-07T03:05:02.227Z,-0.12
2023-02-07T03:07:34.912Z,-0.24
2023-02-07T03:10:29.331Z,-0.19
2023-02-07T03:12:58.938Z,-0.26
2023-02-07T03:15:42.223Z,-0.20
2023-02-07T03:18:25.121Z,-0.40
2023-02-07T03:21:00.467Z,-0.35
2023-02-07T03:23:29.842Z,-0.19
2023-02-07T03:26:00.525Z,-0.27
2023-02-07T03:28:30.703Z,-0.39
2023-02-07T03:30:59.621Z,-0.43
2023-02-07T03:33:26.555Z,-0.36
2023-02-07T03:36:11.914Z,-0.45
2023-02-07T03:38:38.852Z,-0.43
2023-02-07T03:41:12.963Z,-0.47
2023-02-07T03:43:41.243Z,-0.56
2023-02-07T03:46:09.771Z,-0.60
2023-02-07T03:48:36.557Z,-0.54
2023-02-07T03:51:03.374Z,-0.60
2023-02-07T03:53:29.936Z,-0.62
2023-02-07T03:55:56.729Z,-0.62
2023-02-07T03:58:23.364Z,-0.57
2023-02-07T04:00:50.026Z,-0.63
2023-02-07T04:03:16.719Z,-0.69
2023-02-07T04:05:45.976Z,-0.66
2023-02-07T04:08:13.955Z,-0.70
2023-02-07T04:10:40.754Z,-0.82
2023-02-07T04:13:07.387Z,-0.70
2023-02-07T04:15:34.139Z,-0.72
2023-02-07T04:18:00.994Z,-0.72
2023-02-07T04:20:27.607Z,-0.73
2023-02-07T04:22:54.184Z,-0.67
2023-02-07T04:25:20.750Z,-0.75
2023-02-07T04:27:47.412Z,-0.81
2023-02-07T04:30:14.175Z,-0.82
2023-02-07T04:32:40.803Z,-0.79
2023-02-07T04:35:07.910Z,-0.90
2023-02-07T04:37:34.528Z,-0.85
2023-02-07T04:40:01.090Z,-0.79
2023-02-07T04:42:27.717Z,-0.78
2023-02-07T04:44:54.356Z,-0.82
2023-02-07T04:47:21.058Z,-0.81
2023-02-07T04:49:47.687Z,-0.71
2023-02-07T04:52:14.333Z,-0.85
2023-02-07T04:54:41.247Z,-0.91
2023-02-07T04:57:07.760Z,-0.79
2023-02-07T04:59:34.446Z,-0.87
2023-02-07T05:02:01.174Z,-0.96
2023-02-07T05:04:27.923Z,-0.98
2023-02-07T05:06:54.605Z,-0.99
2023-02-07T05:09:21.454Z,-1.07
2023-02-07T05:11:48.056Z,-0.92
2023-02-07T05:14:14.697Z,-0.90
2023-02-07T05:16:41.660Z,-0.90
2023-02-07T05:19:08.386Z,-0.99
2023-02-07T05:21:34.938Z,-0.90
2023-02-07T05:24:01.891Z,-0.91
2023-02-07T05:26:28.488Z,-0.90
2023-02-07T05:28:55.049Z,-1.00
2023-02-07T05:31:42.078Z,-0.90
2023-02-07T05:34:08.686Z,-1.04
2023-02-07T05:36:36.100Z,-0.97
2023-02-07T05:39:04.377Z,-1.09
2023-02-07T05:41:31.005Z,-0.94
2023-02-07T05:43:57.762Z,-1.03
2023-02-07T05:46:24.419Z,-1.12
2023-02-07T05:48:51.080Z,-1.10
2023-02-07T05:51:17.772Z,-1.01
2023-02-07T05:53:44.517Z,-0.97
2023-02-07T05:56:11.269Z,-1.22
2023-02-07T05:58:37.852Z,-1.08
2023-02-07T06:01:04.802Z,-1.02
2023-02-07T06:03:31.368Z,-0.96
2023-02-07T06:05:57.995Z,-1.06
2023-02-07T06:08:24.724Z,-1.21
2023-02-07T06:10:51.326Z,-1.17
2023-02-07T06:13:17.924Z,-1.18
2023-02-07T06:15:44.654Z,-1.17
2023-02-07T06:18:11.272Z,-1.16
2023-02-07T06:20:37.841Z,-1.15
2023-02-07T06:23:04.599Z,-1.16
2023-02-07T06:25:31.186Z,-1.16
2023-02-07T06:27:58.154Z,-1.16
2023-02-07T06:30:24.968Z,-1.17
2023-02-07T06:32:51.509Z,-1.33
2023-02-07T06:35:18.136Z,-1.31
2023-02-07T06:37:44.692Z,-1.23
2023-02-07T06:40:11.561Z,-1.20
2023-02-07T06:42:38.107Z,-1.37
2023-02-07T06:45:05.027Z,-1.40
2023-02-07T06:47:31.567Z,-1.25
2023-02-07T06:49:58.230Z,-1.26
2023-02-07T06:52:24.900Z,-1.27
2023-02-07T06:54:51.482Z,-1.40
2023-02-07T06:57:18.038Z,-1.39
2023-02-07T06:59:44.751Z,-1.43
2023-02-07T07:02:13.089Z,-1.24
2023-02-07T07:04:39.650Z,-1.24
2023-02-07T07:07:06.452Z,-1.24
2023-02-07T07:09:33.127Z,-1.07
2023-02-07T07:11:59.665Z,-1.09
2023-02-07T07:14:26.411Z,-1.19
2023-02-07T07:16:53.908Z,-0.99
2023-02-07T07:19:22.429Z,-1.00
2023-02-07T07:21:49.169Z,-1.02
2023-02-07T07:24:15.820Z,-0.86
2023-02-07T07:26:49.561Z,-0.90
2023-02-07T07:29:18.120Z,-0.64
2023-02-07T07:31:45.710Z,-0.58
2023-02-07T07:34:13.045Z,-0.43
2023-02-07T07:36:39.655Z,-0.12
2023-02-07T07:39:08.449Z,-0.03
2023-02-07T07:41:35.073Z,0.18
2023-02-07T07:44:01.689Z,0.12
2023-02-07T07:46:28.457Z,0.05
2023-02-07T07:48:55.074Z,-0.01
2023-02-07T07:51:21.837Z,-0.38
2023-02-07T07:53:48.438Z,-0.18
2023-02-07T07:56:15.062Z,-0.28
2023-02-07T07:58:41.864Z,-0.19
2023-02-07T08:01:08.457Z,0.03
2023-02-07T08:03:35.109Z,-0.08
2023-02-07T08:06:01.980Z,0.28
2023-02-07T08:08:28.554Z,0.28
2023-02-07T08:10:55.306Z,0.42
2023-02-07T08:13:22.552Z,0.29
2023-02-07T08:15:49.182Z,0.18
2023-02-07T08:18:15.757Z,0.17
2023-02-07T08:20:42.631Z,0.31
2023-02-07T08:23:09.281Z,0.17
2023-02-07T08:25:35.873Z,0.22
2023-02-07T08:28:04.518Z,0.22
2023-02-07T08:30:31.548Z,0.05
2023-02-07T08:32:58.343Z,0.33
2023-02-07T08:35:26.708Z,0.21
2023-02-07T08:37:54.216Z,0.33
2023-02-07T08:40:20.894Z,0.36
2023-02-07T08:42:47.949Z,0.60
2023-02-07T08:45:16.091Z,0.74
2023-02-07T08:47:42.662Z,0.65
2023-02-07T08:50:10.211Z,0.74
2023-02-07T08:52:37.205Z,1.02
2023-02-07T08:55:03.992Z,0.83
2023-02-07T08:57:30.798Z,1.00
2023-02-07T08:59:57.584Z,1.02
2023-02-07T09:02:24.297Z,0.96
2023-02-07T09:04:51.753Z,1.08
2023-02-07T09:07:19.244Z,1.10
2023-02-07T09:09:46.980Z,1.16
2023-02-07T09:12:13.727Z,1.06
2023-02-07T09:14:40.942Z,1.41
2023-02-07T09:17:08.786Z,1.15
2023-02-07T09:19:36.529Z,1.34
2023-02-07T09:22:04.338Z,1.20
2023-02-07T09:24:30.977Z,1.28
2023-02-07T09:26:57.682Z,1.15
2023-02-07T09:29:24.411Z,1.29
2023-02-07T09:31:51.468Z,1.28
2023-02-07T09:34:18.578Z,1.29
2023-02-07T09:36:45.286Z,1.46
2023-02-07T09:39:12.061Z,1.34
2023-02-07T09:41:47.912Z,1.49
2023-02-07T09:44:18.980Z,1.35
2023-02-07T09:47:02.577Z,1.34
2023-02-07T09:49:48.515Z,1.48
2023-02-07T09:52:21.170Z,1.49
2023-02-07T09:54:52.909Z,1.54
2023-02-07T09:57:28.634Z,1.69
2023-02-07T10:00:02.648Z,1.99
2023-02-07T10:02:45.010Z,1.74
2023-02-07T10:05:26.204Z,2.00
2023-02-07T10:07:52.899Z,2.06
2023-02-07T10:10:32.296Z,2.01
2023-02-07T10:13:06.983Z,1.91
2023-02-07T10:15:40.949Z,2.19
2023-02-07T10:18:42.872Z,2.05
2023-02-07T10:21:32.274Z,2.35
2023-02-07T10:24:41.586Z,2.26
2023-02-07T10:27:13.517Z,2.14
2023-02-07T10:30:15.198Z,2.15
2023-02-07T10:32:43.538Z,2.47
2023-02-07T10:35:22.789Z,2.38
2023-02-07T10:37:53.769Z,2.54
2023-02-07T10:40:49.121Z,2.61
2023-02-07T10:43:36.274Z,2.30
2023-02-07T10:46:06.927Z,2.55
2023-02-07T10:48:35.072Z,2.56
2023-02-07T10:51:04.580Z,2.50
2023-02-07T10:53:54.350Z,2.67
2023-02-07T10:56:27.315Z,2.82
2023-02-07T10:58:56.007Z,2.60
2023-02-07T11:01:26.760Z,2.88
2023-02-07T11:03:54.721Z,2.81
2023-02-07T11:06:32.894Z,2.75
2023-02-07T11:09:24.272Z,3.01
2023-02-07T11:11:52.779Z,3.30
2023-02-07T11:14:26.485Z,3.28
2023-02-07T11:16:58.092Z,3.09
2023-02-07T11:19:31.782Z,3.40
2023-02-07T11:22:19.548Z,3.17
2023-02-07T11:24:48.029Z,3.52
2023-02-07T11:27:15.783Z,3.76
2023-02-07T11:30:08.281Z,3.55
2023-02-07T11:32:38.351Z,3.52
2023-02-07T11:35:09.587Z,3.55
2023-02-07T11:37:38.695Z,3.95
2023-02-07T11:40:22.522Z,4.27
2023-02-07T11:43:03.747Z,4.26
2023-02-07T11:45:34.671Z,4.12
2023-02-07T11:48:02.897Z,4.31
2023-02-07T11:50:30.525Z,4.17
2023-02-07T11:53:00.584Z,3.98
2023-02-07T11:55:30.757Z,4.24
2023-02-07T11:57:58.126Z,4.05
2023-02-07T12:00:29.831Z,4.36
2023-02-07T12:03:18.370Z,4.31
2023-02-07T12:05:50.246Z,4.17
2023-02-07T12:08:20.465Z,3.91
2023-02-07T12:10:52.684Z,4.24
2023-02-07T12:13:27.241Z,4.10
2023-02-07T12:16:02.445Z,4.19
2023-02-07T12:18:38.015Z,4.36
2023-02-07T12:21:04.937Z,4.45
2023-02-07T12:23:46.583Z,4.50
2023-02-07T12:26:31.942Z,4.35
2023-02-07T12:29:36.572Z,4.37
2023-02-07T12:32:27.398Z,4.65
2023-02-07T12:35:37.729Z,4.55
2023-02-07T12:38:25.184Z,4.61
2023-02-07T12:40:59.615Z,4.49
2023-02-07T12:43:28.146Z,4.76
2023-02-07T12:46:02.493Z,4.60
2023-02-07T12:48:47.514Z,4.76
2023-02-07T12:51:29.770Z,4.70
2023-02-07T12:54:16.023Z,4.63
2023-02-07T12:57:05.703Z,4.69
2023-02-07T12:59:58.309Z,4.80
2023-02-07T13:02:43.084Z,4.67
2023-02-07T13:05:22.941Z,4.64
2023-02-07T13:08:01.078Z,4.54
2023-02-07T13:10:43.502Z,4.40
2023-02-07T13:13:28.061Z,4.23
2023-02-07T13:16:06.465Z,4.32
2023-02-07T13:18:42.205Z,4.68
2023-02-07T13:21:24.628Z,4.63
2023-02-07T13:23:51.358Z,4.75
2023-02-07T13:26:24.863Z,4.80
2023-02-07T13:28:56.247Z,4.91
2023-02-07T13:31:32.787Z,4.77
2023-02-07T13:34:00.314Z,4.57
2023-02-07T13:36:42.445Z,4.78
2023-02-07T13:39:34.490Z,4.68
2023-02-07T13:42:26.045Z,4.94
2023-02-07T13:45:12.349Z,4.90
2023-02-07T13:47:57.803Z,4.93
2023-02-07T13:50:40.294Z,5.08
2023-02-07T13:53:34.939Z,4.93
2023-02-07T13:56:03.896Z,5.04
2023-02-07T13:58:52.469Z,5.19
2023-02-07T14:01:28.386Z,5.20
2023-02-07T14:04:05.245Z,5.36
2023-02-07T14:06:37.098Z,5.27
2023-02-07T14:09:24.471Z,5.16
2023-02-07T14:12:06.569Z,5.33
2023-02-07T14:14:38.820Z,5.36
2023-02-07T14:17:13.839Z,5.25
2023-02-07T14:19:40.644Z,5.33
2023-02-07T14:22:17.068Z,5.33
2023-02-07T14:24:59.049Z,5.04
2023-02-07T14:27:34.961Z,4.99
2023-02-07T14:30:01.683Z,5.18
2023-02-07T14:32:31.743Z,5.14
2023-02-07T14:34:58.243Z,5.15
2023-02-07T14:37:51.708Z,5.19
2023-02-07T14:40:31.815Z,5.14
2023-02-07T14:43:15.864Z,5.21
2023-02-07T14:45:51.375Z,5.39
2023-02-07T14:48:53.040Z,5.08
2023-02-07T14:51:32.013Z,5.24
2023-02-07T14:54:20.223Z,5.10
2023-02-07T14:56:50.010Z,5.15
2023-02-07T14:59:36.021Z,4.98
2023-02-07T15:02:39.246Z,5.07
2023-02-07T15:05:28.437Z,4.81
2023-02-07T15:08:04.241Z,4.95
2023-02-07T15:10:33.797Z,4.87
2023-02-07T15:13:01.684Z,5.04
2023-02-07T15:15:31.016Z,4.91
2023-02-07T15:18:02.798Z,4.73
2023-02-07T15:20:34.957Z,4.86
2023-02-07T15:23:07.437Z,4.84
2023-02-07T15:25:35.396Z,4.75
2023-02-07T15:28:25.397Z,4.67
2023-02-07T15:31:06.953Z,4.76
2023-02-07T15:33:39.493Z,4.70
2023-02-07T15:36:25.454Z,4.70
2023-02-07T15:38:52.849Z,4.60
2023-02-07T15:41:19.756Z,4.52
2023-02-07T15:44:01.599Z,4.56
2023-02-07T15:46:47.819Z,4.31
2023-02-07T15:49:37.350Z,4.27
2023-02-07T15:52:12.749Z,4.40
2023-02-07T15:54:44.152Z,4.62
2023-02-07T15:57:28.991Z,4.39
2023-02-07T16:00:00.701Z,4.31
2023-02-07T16:02:32.743Z,4.25
2023-02-07T16:05:07.419Z,4.38
2023-02-07T16:07:33.983Z,4.27
2023-02-07T16:10:18.836Z,3.92
2023-02-07T16:12:53.081Z,3.78
2023-02-07T16:15:53.512Z,3.59
2023-02-07T16:18:40.995Z,3.46
2023-02-07T16:21:14.745Z,3.30
2023-02-07T16:23:42.317Z,3.17
2023-02-07T16:26:09.260Z,3.06
2023-02-07T16:28:36.009Z,2.99
2023-02-07T16:31:02.698Z,2.88
2023-02-07T16:33:29.275Z,2.80
2023-02-07T16:35:55.872Z,2.89
2023-02-07T16:38:22.479Z,2.69
2023-02-07T16:40:49.527Z,2.55
2023-02-07T16:43:40.530Z,2.54
2023-02-07T16:46:07.095Z,2.52
2023-02-07T16:48:33.667Z,2.36
2023-02-07T16:51:01.444Z,2.37
2023-02-07T16:53:28.039Z,2.28
2023-02-07T16:55:56.478Z,2.17
2023-02-07T16:58:29.191Z,2.10
2023-02-07T17:00:56.250Z,2.03
2023-02-07T17:03:23.910Z,1.97
2023-02-07T17:05:50.955Z,1.95
2023-02-07T17:08:27.229Z,1.91
2023-02-07T17:10:59.063Z,1.94
2023-02-07T17:13:26.043Z,1.99
2023-02-07T17:15:52.928Z,2.06
2023-02-07T17:18:21.008Z,2.01
2023-02-07T17:20:48.045Z,1.97
2023-02-07T17:23:14.892Z,1.78
2023-02-07T17:25:42.892Z,1.96
2023-02-07T17:28:13.196Z,1.92
2023-02-07T17:30:41.402Z,1.84
2023-02-07T17:33:09.806Z,1.89
2023-02-07T17:35:37.626Z,1.93
2023-02-07T17:38:04.343Z,1.93
2023-02-07T17:40:39.489Z,1.99
2023-02-07T17:43:07.041Z,1.98
2023-02-07T17:45:36.107Z,2.07
2023-02-07T17:48:04.067Z,1.94
2023-02-07T17:50:36.753Z,1.89
2023-02-07T17:53:03.601Z,1.81
2023-02-07T17:55:32.360Z,1.94
2023-02-07T17:58:00.248Z,1.88
2023-02-07T18:00:30.361Z,1.68
2023-02-07T18:02:57.319Z,1.69
2023-02-07T18:05:25.012Z,1.63
2023-02-07T18:07:52.948Z,1.69
2023-02-07T18:10:23.274Z,1.69
2023-02-07T18:12:50.430Z,1.75
2023-02-07T18:15:19.126Z,1.76
2023-02-07T18:17:47.604Z,1.83
2023-02-07T18:20:27.259Z,1.89
2023-02-07T18:22:55.454Z,1.88
2023-02-07T18:25:22.883Z,2.05
2023-02-07T18:27:51.702Z,2.04
2023-02-07T18:30:20.532Z,2.01
2023-02-07T18:32:47.542Z,1.95
2023-02-07T18:35:14.297Z,1.93
2023-02-07T18:37:41.668Z,1.90
2023-02-07T18:40:10.245Z,1.86
2023-02-07T18:42:36.873Z,1.71
2023-02-07T18:45:03.743Z,1.74
2023-02-07T18:47:32.509Z,1.87
2023-02-07T18:49:59.452Z,1.81
2023-02-07T18:52:26.134Z,1.76
2023-02-07T18:54:52.735Z,1.87
2023-02-07T18:57:19.390Z,1.74
2023-02-07T18:59:46.073Z,1.74
2023-02-07T19:02:13.406Z,1.76
2023-02-07T19:04:40.489Z,1.72
2023-02-07T19:07:07.115Z,1.70
2023-02-07T19:09:34.032Z,1.64
2023-02-07T19:12:01.198Z,1.75
2023-02-07T19:14:32.879Z,1.60
2023-02-07T19:16:59.910Z,1.60
2023-02-07T19:19:29.196Z,1.56
2023-02-07T19:21:56.483Z,1.51
2023-02-07T19:24:24.253Z,1.48
2023-02-07T19:26:53.761Z,1.51
2023-02-07T19:29:28.104Z,1.48
2023-02-07T19:31:59.951Z,1.43
2023-02-07T19:34:26.653Z,1.49
2023-02-07T19:36:53.958Z,1.38
2023-02-07T19:39:21.387Z,1.42
2023-02-07T19:41:48.542Z,1.38
2023-02-07T19:44:17.081Z,1.30
2023-02-07T19:46:44.343Z,1.27
2023-02-07T19:49:12.916Z,1.31
2023-02-07T19:51:40.033Z,1.22
2023-02-07T19:54:06.978Z,1.21
2023-02-07T19:56:34.054Z,1.17
2023-02-07T19:59:03.735Z,1.10
2023-02-07T20:01:33.255Z,1.06
2023-02-07T20:04:00.781Z,1.01
2023-02-07T20:06:31.367Z,0.92
2023-02-07T20:09:03.719Z,0.86
2023-02-07T20:11:30.568Z,0.88
2023-02-07T20:14:06.946Z,0.80
2023-02-07T20:16:36.333Z,0.89
2023-02-07T20:19:05.876Z,0.93
2023-02-07T20:21:34.871Z,0.89
2023-02-07T20:24:02.422Z,0.85
2023-02-07T20:26:38.097Z,0.85
2023-02-07T20:29:09.481Z,0.83
2023-02-07T20:31:37.267Z,0.83
2023-02-07T20:34:05.067Z,0.82
2023-02-07T20:36:33.600Z,0.76
2023-02-07T20:39:00.600Z,0.79
2023-02-07T20:41:29.629Z,0.77
2023-02-07T20:44:04.605Z,0.64
2023-02-07T20:46:32.756Z,0.82
2023-02-07T20:49:05.733Z,0.77
2023-02-07T20:51:32.848Z,0.85
2023-02-07T20:54:01.358Z,0.74
2023-02-07T20:56:28.945Z,0.59
2023-02-07T20:58:57.929Z,0.54
2023-02-07T21:01:30.255Z,0.70
2023-02-07T21:03:59.545Z,0.56
2023-02-07T21:06:27.163Z,0.47
2023-02-07T21:09:05.390Z,0.55
2023-02-07T21:11:39.303Z,0.38
2023-02-07T21:14:15.959Z,0.44
2023-02-07T21:16:42.984Z,0.47
2023-02-07T21:19:10.168Z,0.43
2023-02-07T21:21:37.744Z,0.43
2023-02-07T21:24:04.688Z,0.38
2023-02-07T21:26:31.328Z,0.37
2023-02-07T21:29:03.040Z,0.32
2023-02-07T21:31:31.356Z,0.43
2023-02-07T21:33:58.469Z,0.47
2023-02-07T21:36:30.477Z,0.31
2023-02-07T21:38:59.464Z,0.34
2023-02-07T21:41:28.755Z,0.22
2023-02-07T21:43:56.922Z,0.24
2023-02-07T21:46:26.533Z,0.32
2023-02-07T21:48:58.197Z,0.27
2023-02-07T21:51:26.052Z,0.21
2023-02-07T21:53:54.466Z,0.16
2023-02-07T21:56:26.779Z,0.18
2023-02-07T21:58:58.619Z,0.17
2023-02-07T22:01:26.159Z,0.11
2023-02-07T22:03:56.324Z,0.10
2023-02-07T22:06:23.661Z,0.04
2023-02-07T22:08:52.448Z,-0.08
2023-02-07T22:11:21.633Z,-0.05
2023-02-07T22:13:51.234Z,-0.10
2023-02-07T22:16:19.674Z,-0.17
2023-02-07T22:18:46.324Z,-0.05
2023-02-07T22:21:19.048Z,-0.08
2023-02-07T22:23:46.358Z,-0.10
2023-02-07T22:26:13.638Z,-0.06
2023-02-07T22:28:41.589Z,-0.14
2023-02-07T22:31:13.225Z,-0.16
2023-02-07T22:33:40.072Z,-0.20
2023-02-07T22:36:22.617Z,-0.27
2023-02-07T22:38:50.391Z,-0.21
2023-02-07T22:41:17.728Z,-0.17
2023-02-07T22:43:44.613Z,-0.20
2023-02-07T22:46:14.676Z,-0.25
2023-02-07T22:48:41.519Z,-0.18
2023-02-07T22:51:17.828Z,-0.24
2023-02-07T22:53:44.964Z,-0.27
2023-02-07T22:56:12.248Z,-0.37
2023-02-07T22:58:40.650Z,-0.28
2023-02-07T23:01:08.065Z,-0.31
2023-02-07T23:03:34.836Z,-0.34
2023-02-07T23:06:05.663Z,-0.32
2023-02-07T23:08:32.578Z,-0.36
2023-02-07T23:10:59.187Z,-0.29
2023-02-07T23:13:26.318Z,-0.37
2023-02-07T23:15:53.974Z,-0.37
2023-02-07T23:18:20.857Z,-0.38
2023-02-07T23:20:47.652Z,-0.42
2023-02-07T23:23:14.284Z,-0.38
2023-02-07T23:25:45.838Z,-0.49
2023-02-07T23:28:13.739Z,-0.44
2023-02-07T23:30:41.732Z,-0.50
2023-02-07T23:33:09.798Z,-0.42
2023-02-07T23:35:36.787Z,-0.47
2023-02-07T23:38:04.018Z,-0.45
2023-02-07T23:40:30.765Z,-0.38
2023-02-07T23:42:57.737Z,-0.40
2023-02-07T23:45:25.138Z,-0.25
2023-02-07T23:47:51.779Z,-0.36
2023-02-07T23:50:18.690Z,-0.50
2023-02-07T23:52:45.458Z,-0.44
2023-02-07T23:55:12.275Z,-0.46
2023-02-07T23:57:39.003Z,-0.46
